Time;durP1;ratioP1;P1;durP2;ratioP2;P2;SDS_P1;SDS_P2;PMS_P1;PMS_P2;Temp;Humidity;BMP_temperature;BMP_pressure;BME280_temperature;BME280_humidity;BME280_pressure;Samples;Min_cycle;Max_cycle;Signal;HPM_P1;HPM_P2
2021/04/15 00:00:41;;;;;;;4.45;4.05;;;;;;;;;;5018046;28;20604;-84
2021/04/15 00:03:11;;;;;;;5.93;5.32;;;;;;;;;;5017589;28;20211;-85
2021/04/15 00:05:39;;;;;;;6.63;6.03;;;;;;;;;;5017346;28;20278;-84
2021/04/15 00:08:07;;;;;;;8.85;5.85;;;;;;;;;;5015703;28;20193;-83
2021/04/15 00:10:38;;;;;;;4.93;4.53;;;;;;;;;;5016334;28;20208;-85
2021/04/15 00:13:09;;;;;;;6.45;5.82;;;;;;;;;;5016558;28;20241;-85
2021/04/15 00:15:36;;;;;;;7.45;5.32;;;;;;;;;;5016207;28;20199;-84
2021/04/15 00:18:03;;;;;;;5.30;4.80;;;;;;;;;;5016970;28;20203;-84
2021/04/15 00:20:31;;;;;;;5.70;5.20;;;;;;;;;;5017824;28;20194;-84
2021/04/15 00:22:58;;;;;;;5.53;5.03;;;;;;;;;;5017876;28;20242;-84
2021/04/15 00:25:25;;;;;;;6.53;5.93;;;;;;;;;;5017439;28;20236;-84
2021/04/15 00:27:52;;;;;;;6.32;5.72;;;;;;;;;;5018158;28;20200;-84
2021/04/15 00:30:21;;;;;;;5.75;5.07;;;;;;;;;;5017406;28;20195;-84
2021/04/15 00:32:49;;;;;;;6.15;5.65;;;;;;;;;;5017403;28;20234;-84
2021/04/15 00:35:18;;;;;;;6.07;5.57;;;;;;;;;;5016286;28;20195;-84
2021/04/15 00:37:47;;;;;;;6.05;5.47;;;;;;;;;;5017827;28;20265;-84
2021/04/15 00:40:16;;;;;;;6.15;5.65;;;;;;;;;;5016006;28;20226;-85
2021/04/15 00:42:44;;;;;;;6.65;6.05;;;;;;;;;;5016398;28;20689;-84
2021/04/15 00:45:15;;;;;;;7.30;6.45;;;;;;;;;;5017096;28;20246;-84
2021/04/15 00:47:46;;;;;;;6.32;5.68;;;;;;;;;;5017305;28;20271;-84
2021/04/15 00:50:16;;;;;;;7.30;6.60;;;;;;;;;;5015381;28;20713;-84
2021/04/15 00:52:51;;;;;;;7.70;5.97;;;;;;;;;;5015408;28;20214;-85
2021/04/15 00:55:22;;;;;;;6.60;6.00;;;;;;;;;;5015294;28;20202;-85
2021/04/15 00:57:51;;;;;;;7.13;5.82;;;;;;;;;;5013332;28;20199;-84
2021/04/15 01:00:23;;;;;;;7.13;6.43;;;;;;;;;;5015473;28;20673;-85
2021/04/15 01:02:50;;;;;;;8.63;6.28;;;;;;;;;;5013352;28;20302;-85
2021/04/15 01:05:21;;;;;;;6.93;6.13;;;;;;;;;;5015103;28;20258;-85
2021/04/15 01:07:50;;;;;;;6.30;5.72;;;;;;;;;;5015399;28;20196;-85
2021/04/15 01:10:18;;;;;;;6.65;6.05;;;;;;;;;;5015558;28;20187;-85
2021/04/15 01:12:57;;;;;;;9.18;6.22;;;;;;;;;;5011978;28;20317;-85
2021/04/15 01:15:42;;;;;;;6.72;6.03;;;;;;;;;;5015390;28;20206;-84
2021/04/15 01:18:17;;;;;;;6.88;6.18;;;;;;;;;;5013137;28;20197;-85
2021/04/15 01:21:29;;;;;;;8.32;6.88;;;;;;;;;;5014642;28;20818;-84
2021/04/15 01:24:02;;;;;;;6.60;5.80;;;;;;;;;;5014037;28;20195;-84
2021/04/15 01:26:56;;;;;;;9.55;6.80;;;;;;;;;;5012512;28;20184;-84
2021/04/15 01:29:29;;;;;;;6.82;6.00;;;;;;;;;;5015125;28;20192;-84
2021/04/15 01:32:03;;;;;;;11.65;6.40;;;;;;;;;;5015379;28;20214;-84
2021/04/15 01:34:41;;;;;;;7.45;6.07;;;;;;;;;;5012707;28;20198;-84
2021/04/15 01:37:19;;;;;;;7.30;6.28;;;;;;;;;;5014775;28;20266;-85
2021/04/15 01:39:50;;;;;;;6.65;5.95;;;;;;;;;;5019808;28;20222;-85
2021/04/15 01:42:21;;;;;;;7.82;6.13;;;;;;;;;;5036402;28;20425;-84
2021/04/15 01:44:52;;;;;;;11.52;7.35;;;;;;;;;;5035825;28;20182;-84
2021/04/15 01:47:24;;;;;;;8.35;7.55;;;;;;;;;;5034292;28;20206;-86
2021/04/15 01:50:01;;;;;;;8.07;7.00;;;;;;;;;;5035262;28;20202;-84
2021/04/15 01:52:28;;;;;;;7.78;7.07;;;;;;;;;;5026044;28;20246;-85
2021/04/15 01:55:00;;;;;;;7.45;6.68;;;;;;;;;;5021224;28;20249;-84
2021/04/15 01:57:30;;;;;;;7.63;6.90;;;;;;;;;;5024336;28;20194;-85
2021/04/15 02:00:05;;;;;;;7.03;6.15;;;;;;;;;;5023561;28;20198;-85
2021/04/15 02:02:39;;;;;;;9.40;6.28;;;;;;;;;;5025408;28;20224;-85
2021/04/15 02:05:12;;;;;;;7.85;6.80;;;;;;;;;;5024543;28;20217;-86
2021/04/15 02:07:43;;;;;;;6.63;5.97;;;;;;;;;;5022038;28;20665;-84
2021/04/15 02:10:12;;;;;;;7.88;6.45;;;;;;;;;;5023150;28;20214;-85
2021/04/15 02:12:43;;;;;;;6.95;6.28;;;;;;;;;;5023825;28;20219;-85
2021/04/15 02:15:16;;;;;;;7.95;7.15;;;;;;;;;;5022894;28;20249;-85
2021/04/15 02:17:43;;;;;;;7.80;7.00;;;;;;;;;;5022228;28;20198;-84
2021/04/15 02:20:15;;;;;;;9.07;7.28;;;;;;;;;;5022539;28;20195;-85
2021/04/15 02:22:49;;;;;;;10.32;6.05;;;;;;;;;;5023797;28;20707;-85
2021/04/15 02:26:15;;;;;;;7.25;6.55;;;;;;;;;;5022497;28;20561;-85
2021/04/15 02:28:47;;;;;;;7.63;6.90;;;;;;;;;;5034569;28;20266;-85
2021/04/15 02:31:19;;;;;;;6.70;6.05;;;;;;;;;;5034535;28;20591;-85
2021/04/15 02:33:51;;;;;;;7.07;6.38;;;;;;;;;;5034106;28;20226;-85
2021/04/15 02:36:19;;;;;;;8.65;6.43;;;;;;;;;;5034046;28;20572;-85
2021/04/15 02:38:52;;;;;;;8.18;6.55;;;;;;;;;;5033514;28;20624;-85
2021/04/15 02:41:24;;;;;;;9.07;6.70;;;;;;;;;;5033939;28;20223;-85
2021/04/15 02:43:56;;;;;;;7.15;6.43;;;;;;;;;;5033622;28;20218;-85
2021/04/15 02:46:29;;;;;;;7.30;6.38;;;;;;;;;;5034108;28;20202;-85
2021/04/15 02:49:00;;;;;;;8.30;5.70;;;;;;;;;;5033537;28;20202;-85
2021/04/15 02:51:30;;;;;;;8.13;6.70;;;;;;;;;;5034076;28;20223;-85
2021/04/15 02:54:02;;;;;;;7.18;6.47;;;;;;;;;;5033753;28;20218;-85
2021/04/15 02:56:34;;;;;;;9.43;6.05;;;;;;;;;;5033733;28;20206;-85
2021/04/15 02:59:07;;;;;;;7.90;7.10;;;;;;;;;;5037713;28;20214;-85
2021/04/15 03:01:38;;;;;;;8.43;7.45;;;;;;;;;;5036822;28;20226;-84
2021/04/15 03:04:06;;;;;;;7.82;6.70;;;;;;;;;;5036940;28;20206;-84
2021/04/15 03:06:35;;;;;;;8.25;7.45;;;;;;;;;;5037407;28;20703;-84
2021/04/15 03:09:07;;;;;;;10.20;7.18;;;;;;;;;;5037404;28;20201;-85
2021/04/15 03:11:39;;;;;;;11.05;7.82;;;;;;;;;;5037927;28;20218;-85
2021/04/15 03:14:10;;;;;;;11.20;6.53;;;;;;;;;;5037407;28;20696;-85
2021/04/15 03:16:43;;;;;;;7.72;7.00;;;;;;;;;;5037125;28;20199;-84
2021/04/15 03:19:16;;;;;;;9.30;7.45;;;;;;;;;;5037555;28;20237;-85
2021/04/15 03:21:48;;;;;;;9.32;7.45;;;;;;;;;;5037315;28;20222;-85
2021/04/15 03:24:19;;;;;;;7.43;6.70;;;;;;;;;;5037339;28;20256;-85
2021/04/15 03:26:49;;;;;;;8.60;7.50;;;;;;;;;;5037507;28;20664;-84
2021/04/15 03:29:24;;;;;;;8.10;6.65;;;;;;;;;;5035613;28;20237;-84
2021/04/15 03:32:14;;;;;;;8.73;7.38;;;;;;;;;;5035276;28;20222;-84
2021/04/15 03:34:48;;;;;;;9.02;7.05;;;;;;;;;;5036233;28;20234;-84
2021/04/15 03:37:21;;;;;;;8.55;7.35;;;;;;;;;;5035241;28;20676;-84
2021/04/15 03:39:49;;;;;;;7.45;6.72;;;;;;;;;;5035626;28;20234;-84
2021/04/15 03:42:24;;;;;;;10.18;7.15;;;;;;;;;;5035447;28;20268;-84
2021/04/15 03:44:53;;;;;;;7.85;6.90;;;;;;;;;;5035326;28;20213;-84
2021/04/15 03:47:26;;;;;;;8.48;6.80;;;;;;;;;;5035079;28;20198;-84
2021/04/15 03:49:57;;;;;;;8.95;7.63;;;;;;;;;;5035599;28;20194;-83
2021/04/15 03:52:27;;;;;;;7.97;7.18;;;;;;;;;;5035294;28;20527;-84
2021/04/15 03:55:04;;;;;;;7.97;6.80;;;;;;;;;;5035263;28;20229;-84
2021/04/15 03:57:32;;;;;;;9.07;7.53;;;;;;;;;;5034889;28;20208;-84
2021/04/15 04:00:05;;;;;;;7.43;6.72;;;;;;;;;;5035081;28;20195;-84
2021/04/15 04:02:38;;;;;;;8.90;7.38;;;;;;;;;;5034790;28;20823;-84
2021/04/15 04:05:09;;;;;;;7.80;7.00;;;;;;;;;;5035269;28;20573;-84
2021/04/15 04:07:39;;;;;;;8.73;7.35;;;;;;;;;;5035352;28;20565;-84
2021/04/15 04:10:10;;;;;;;7.70;6.65;;;;;;;;;;5034106;28;20198;-84
2021/04/15 04:12:42;;;;;;;7.45;6.55;;;;;;;;;;5034784;28;20229;-84
2021/04/15 04:15:15;;;;;;;7.47;6.63;;;;;;;;;;5034568;28;20209;-84
2021/04/15 04:18:04;;;;;;;8.55;7.30;;;;;;;;;;5034630;28;20208;-84
2021/04/15 04:20:34;;;;;;;7.63;6.38;;;;;;;;;;5035362;28;20203;-84
2021/04/15 04:23:08;;;;;;;7.75;6.70;;;;;;;;;;5034784;28;20223;-84
2021/04/15 04:25:40;;;;;;;8.38;7.10;;;;;;;;;;5034886;28;20256;-84
2021/04/15 04:28:13;;;;;;;7.57;6.88;;;;;;;;;;5034485;28;20199;-84
2021/04/15 04:30:44;;;;;;;9.57;6.78;;;;;;;;;;5034944;28;20203;-84
2021/04/15 04:33:12;;;;;;;9.65;6.72;;;;;;;;;;5035080;28;20226;-84
2021/04/15 04:35:42;;;;;;;7.80;7.00;;;;;;;;;;5034704;28;20202;-84
2021/04/15 04:38:11;;;;;;;7.97;7.15;;;;;;;;;;5034379;28;20210;-84
2021/04/15 04:40:41;;;;;;;8.10;6.90;;;;;;;;;;5034501;28;20205;-84
2021/04/15 04:43:14;;;;;;;7.00;6.13;;;;;;;;;;5034827;28;20657;-84
2021/04/15 04:45:41;;;;;;;7.38;6.68;;;;;;;;;;5034398;28;20205;-84
2021/04/15 04:48:16;;;;;;;7.25;6.55;;;;;;;;;;5038409;28;20210;-84
2021/04/15 04:50:49;;;;;;;8.02;6.82;;;;;;;;;;5034756;28;20194;-84
2021/04/15 04:53:27;;;;;;;8.77;6.57;;;;;;;;;;5034757;28;20221;-84
2021/04/15 04:56:22;;;;;;;8.82;6.35;;;;;;;;;;5034037;28;20209;-84
2021/04/15 04:58:51;;;;;;;9.18;8.00;;;;;;;;;;5034409;28;20683;-84
2021/04/15 05:01:18;;;;;;;8.00;7.25;;;;;;;;;;5034099;28;20356;-84
2021/04/15 05:03:46;;;;;;;8.52;6.90;;;;;;;;;;5034722;28;20665;-84
2021/04/15 05:06:23;;;;;;;9.57;7.75;;;;;;;;;;5033784;28;20194;-84
2021/04/15 05:08:59;;;;;;;8.10;7.30;;;;;;;;;;5034373;28;20202;-84
2021/04/15 05:11:30;;;;;;;9.30;7.45;;;;;;;;;;5034162;28;20226;-83
2021/04/15 05:13:57;;;;;;;7.95;7.15;;;;;;;;;;5034124;28;20715;-84
2021/04/15 05:16:26;;;;;;;9.20;8.18;;;;;;;;;;5033541;28;20206;-84
2021/04/15 05:18:54;;;;;;;8.40;7.60;;;;;;;;;;5033863;28;20214;-85
2021/04/15 05:21:25;;;;;;;8.75;7.85;;;;;;;;;;5033735;28;20222;-83
2021/04/15 05:23:58;;;;;;;8.50;6.95;;;;;;;;;;5033718;28;20251;-84
2021/04/15 05:26:27;;;;;;;8.65;7.47;;;;;;;;;;5033289;28;20208;-84
2021/04/15 05:28:57;;;;;;;9.23;8.32;;;;;;;;;;5033881;28;20194;-84
2021/04/15 05:31:28;;;;;;;8.52;7.63;;;;;;;;;;5033916;28;20735;-83
2021/04/15 05:33:58;;;;;;;8.23;7.25;;;;;;;;;;5033740;28;20215;-84
2021/04/15 05:36:30;;;;;;;7.88;7.07;;;;;;;;;;5033164;28;20582;-84
2021/04/15 05:38:59;;;;;;;9.18;7.50;;;;;;;;;;5033681;28;20237;-85
2021/04/15 05:41:29;;;;;;;10.68;7.43;;;;;;;;;;5033864;28;20264;-84
2021/04/15 05:43:58;;;;;;;10.93;8.90;;;;;;;;;;5033898;28;20260;-84
2021/04/15 05:46:29;;;;;;;10.35;7.93;;;;;;;;;;5033368;28;20210;-84
2021/04/15 05:48:59;;;;;;;11.07;10.00;;;;;;;;;;5033395;28;20195;-85
2021/04/15 05:51:30;;;;;;;8.93;8.02;;;;;;;;;;5033257;28;20300;-85
2021/04/15 05:54:04;;;;;;;9.00;7.55;;;;;;;;;;5033451;28;20203;-86
2021/04/15 05:56:36;;;;;;;9.05;7.43;;;;;;;;;;5033288;28;20205;-85
2021/04/15 05:59:09;;;;;;;8.90;7.72;;;;;;;;;;5033657;28;20300;-85
2021/04/15 06:01:41;;;;;;;10.13;8.15;;;;;;;;;;5033359;28;20230;-85
2021/04/15 06:04:19;;;;;;;9.45;8.45;;;;;;;;;;5033942;28;20202;-85
2021/04/15 06:06:47;;;;;;;10.50;8.32;;;;;;;;;;5033463;28;20179;-85
2021/04/15 06:09:14;;;;;;;10.45;9.35;;;;;;;;;;5033623;28;20202;-86
2021/04/15 06:11:53;;;;;;;10.95;8.63;;;;;;;;;;5033455;28;20228;-85
2021/04/15 06:14:26;;;;;;;9.18;7.63;;;;;;;;;;5034024;28;20232;-85
2021/04/15 06:17:26;;;;;;;11.27;10.10;;;;;;;;;;5033540;28;20206;-85
2021/04/15 06:20:00;;;;;;;12.40;8.85;;;;;;;;;;5033853;28;20213;-85
2021/04/15 06:22:28;;;;;;;8.70;7.90;;;;;;;;;;5033296;28;20251;-86
2021/04/15 06:25:03;;;;;;;11.38;8.88;;;;;;;;;;5033533;28;20205;-86
2021/04/15 06:27:31;;;;;;;10.98;8.82;;;;;;;;;;5033828;28;20565;-85
2021/04/15 06:30:03;;;;;;;10.13;8.40;;;;;;;;;;5033313;28;20294;-85
2021/04/15 06:32:37;;;;;;;9.43;8.45;;;;;;;;;;5035377;28;20229;-85
2021/04/15 06:35:07;;;;;;;11.05;9.13;;;;;;;;;;5036971;28;20225;-86
2021/04/15 06:37:40;;;;;;;12.35;9.38;;;;;;;;;;5037846;28;20213;-85
2021/04/15 06:40:53;;;;;;;13.52;9.15;;;;;;;;;;5037511;28;20256;-87
2021/04/15 06:44:13;;;;;;;10.45;9.35;;;;;;;;;;5037703;28;20229;-85
2021/04/15 06:47:21;;;;;;;11.20;9.43;;;;;;;;;;5031584;28;20271;-86
2021/04/15 06:50:09;;;;;;;10.93;9.82;;;;;;;;;;4950920;28;20191;-85
2021/04/15 06:52:46;;;;;;;10.30;9.25;;;;;;;;;;5037019;28;20222;-86
2021/04/15 06:55:30;;;;;;;11.75;10.38;;;;;;;;;;5037334;28;20696;-85
2021/04/15 06:58:32;;;;;;;13.25;10.38;;;;;;;;;;5037088;28;20199;-85
2021/04/15 07:01:19;;;;;;;11.80;10.57;;;;;;;;;;5028374;28;20202;-85
2021/04/15 07:04:03;;;;;;;10.68;9.50;;;;;;;;;;5037019;28;20205;-85
2021/04/15 07:06:47;;;;;;;12.20;10.13;;;;;;;;;;5036308;28;20205;-86
2021/04/15 07:09:57;;;;;;;14.30;10.80;;;;;;;;;;5037154;28;20208;-85
2021/04/15 07:13:21;;;;;;;12.57;10.50;;;;;;;;;;5035761;28;20222;-85
2021/04/15 07:16:30;;;;;;;14.48;11.18;;;;;;;;;;4996068;28;20226;-85
2021/04/15 07:19:43;;;;;;;11.63;9.70;;;;;;;;;;5035714;28;20210;-85
2021/04/15 07:22:29;;;;;;;13.30;11.88;;;;;;;;;;5015369;28;20222;-86
2021/04/15 07:25:03;;;;;;;13.57;11.07;;;;;;;;;;5036059;28;20297;-86
2021/04/15 07:28:08;;;;;;;13.80;10.85;;;;;;;;;;5036029;28;20206;-86
2021/04/15 07:31:33;;;;;;;14.38;12.38;;;;;;;;;;5035739;28;20763;-85
2021/04/15 07:34:21;;;;;;;15.75;12.18;;;;;;;;;;5035492;28;20212;-85
2021/04/15 07:37:09;;;;;;;14.98;11.05;;;;;;;;;;5035340;28;20242;-86
2021/04/15 07:40:36;;;;;;;13.80;11.65;;;;;;;;;;5035185;28;20292;-85
2021/04/15 07:43:20;;;;;;;14.35;12.25;;;;;;;;;;5021558;28;20234;-85
2021/04/15 07:45:59;;;;;;;14.85;13.05;;;;;;;;;;5035151;28;20198;-85
2021/04/15 07:48:53;;;;;;;14.73;12.10;;;;;;;;;;5035099;28;20281;-85
2021/04/15 07:52:01;;;;;;;16.98;12.90;;;;;;;;;;5035353;28;20226;-85
2021/04/15 07:55:01;;;;;;;15.82;13.02;;;;;;;;;;5034905;28;20229;-84
2021/04/15 07:58:13;;;;;;;16.23;12.35;;;;;;;;;;5035254;28;20498;-85
2021/04/15 08:01:21;;;;;;;16.33;13.00;;;;;;;;;;5034679;28;20216;-85
2021/04/15 08:04:30;;;;;;;14.98;13.05;;;;;;;;;;5015095;28;20466;-84
2021/04/15 08:07:21;;;;;;;18.20;13.77;;;;;;;;;;5031700;28;20202;-84
2021/04/15 08:10:45;;;;;;;15.30;13.23;;;;;;;;;;5035118;28;20220;-85
2021/04/15 08:13:47;;;;;;;16.88;12.65;;;;;;;;;;4967479;28;20210;-85
2021/04/15 08:16:33;;;;;;;15.75;14.05;;;;;;;;;;5034425;28;20229;-85
2021/04/15 08:19:24;;;;;;;13.98;12.52;;;;;;;;;;5034740;28;20213;-86
2021/04/15 08:21:54;;;;;;;15.85;12.63;;;;;;;;;;5018487;28;20789;-85
2021/04/15 08:24:33;;;;;;;14.45;12.60;;;;;;;;;;5035169;28;20664;-86
2021/04/15 08:27:43;;;;;;;13.32;11.63;;;;;;;;;;5035633;28;20186;-86
2021/04/15 08:31:02;;;;;;;12.75;11.13;;;;;;;;;;5035417;28;20202;-87
2021/04/15 08:33:54;;;;;;;15.15;13.10;;;;;;;;;;5027018;28;20202;-85
2021/04/15 08:36:52;;;;;;;12.45;10.77;;;;;;;;;;5033864;28;20233;-84
2021/04/15 08:39:37;;;;;;;13.95;11.98;;;;;;;;;;5034760;28;20241;-85
2021/04/15 08:42:25;;;;;;;16.40;13.13;;;;;;;;;;5035202;28;20660;-85
2021/04/15 08:45:05;;;;;;;18.08;12.57;;;;;;;;;;5034827;28;20559;-85
2021/04/15 08:48:08;;;;;;;12.85;11.27;;;;;;;;;;5034572;28;20651;-85
2021/04/15 08:50:47;;;;;;;13.73;11.13;;;;;;;;;;5034837;28;20571;-84
2021/04/15 08:53:51;;;;;;;12.57;10.20;;;;;;;;;;5034600;28;20661;-87
2021/04/15 08:56:22;;;;;;;12.02;10.27;;;;;;;;;;5034050;28;20364;-85
2021/04/15 08:59:10;;;;;;;12.55;10.77;;;;;;;;;;5034432;28;20265;-86
2021/04/15 09:01:57;;;;;;;12.10;9.70;;;;;;;;;;5034122;28;20229;-85
2021/04/15 09:04:32;;;;;;;12.40;11.10;;;;;;;;;;5026418;28;20588;-86
2021/04/15 09:07:08;;;;;;;11.52;10.32;;;;;;;;;;5014111;28;20233;-88
2021/04/15 09:09:45;;;;;;;11.93;10.77;;;;;;;;;;5021990;28;20182;-86
2021/04/15 09:12:34;;;;;;;13.45;10.30;;;;;;;;;;5024945;28;20225;-86
2021/04/15 09:15:19;;;;;;;10.82;8.70;;;;;;;;;;5033575;28;20253;-86
2021/04/15 09:17:52;;;;;;;9.38;8.32;;;;;;;;;;5023811;28;20249;-84
2021/04/15 09:20:24;;;;;;;9.73;8.60;;;;;;;;;;5023907;28;20198;-85
2021/04/15 09:23:22;;;;;;;10.48;9.38;;;;;;;;;;5018334;28;20230;-86
2021/04/15 09:26:06;;;;;;;11.30;10.13;;;;;;;;;;5016467;28;20246;-86
2021/04/15 09:28:39;;;;;;;8.13;7.30;;;;;;;;;;5017265;28;20192;-85
2021/04/15 09:31:16;;;;;;;13.82;9.57;;;;;;;;;;5027449;28;20238;-86
2021/04/15 09:34:43;;;;;;;8.82;7.45;;;;;;;;;;5025918;28;20244;-86
2021/04/15 09:38:01;;;;;;;9.75;7.60;;;;;;;;;;4976417;28;20681;-86
2021/04/15 09:40:41;;;;;;;8.73;6.43;;;;;;;;;;4994967;28;20203;-86
2021/04/15 09:43:19;;;;;;;7.30;6.15;;;;;;;;;;4995108;28;20582;-86
2021/04/15 09:46:05;;;;;;;7.28;6.57;;;;;;;;;;4994668;28;20203;-86
2021/04/15 09:48:59;;;;;;;8.35;6.82;;;;;;;;;;4994095;28;20200;-86
2021/04/15 09:52:26;;;;;;;15.48;8.00;;;;;;;;;;4994657;28;20226;-86
2021/04/15 09:55:20;;;;;;;7.47;6.63;;;;;;;;;;4994087;28;20207;-85
2021/04/15 09:57:55;;;;;;;10.40;6.63;;;;;;;;;;4992793;28;20204;-87
2021/04/15 10:00:26;;;;;;;8.55;7.43;;;;;;;;;;4989703;28;20650;-87
2021/04/15 10:03:12;;;;;;;7.22;6.43;;;;;;;;;;4990082;28;20228;-87
2021/04/15 10:06:09;;;;;;;7.63;6.28;;;;;;;;;;4977012;28;20208;-86
2021/04/15 10:09:17;;;;;;;7.15;6.47;;;;;;;;;;4974145;28;20184;-87
2021/04/15 10:12:02;;;;;;;7.70;6.82;;;;;;;;;;4927623;28;20224;-86
2021/04/15 10:14:48;;;;;;;8.13;6.78;;;;;;;;;;4974667;28;20185;-86
2021/04/15 10:17:37;;;;;;;6.13;5.22;;;;;;;;;;4995698;28;20210;-85
2021/04/15 10:20:49;;;;;;;6.97;6.28;;;;;;;;;;4993282;28;20631;-86
2021/04/15 10:23:51;;;;;;;6.05;5.45;;;;;;;;;;4992327;28;20192;-86
2021/04/15 10:26:45;;;;;;;8.65;5.55;;;;;;;;;;4991339;28;20207;-86
2021/04/15 10:29:50;;;;;;;6.32;5.50;;;;;;;;;;4990157;28;20200;-86
2021/04/15 10:32:42;;;;;;;5.63;4.72;;;;;;;;;;4990662;28;20215;-86
2021/04/15 10:36:13;;;;;;;6.60;4.80;;;;;;;;;;4990008;28;20249;-86
2021/04/15 10:39:17;;;;;;;4.68;4.13;;;;;;;;;;4945157;28;20227;-85
2021/04/15 10:42:34;;;;;;;4.57;4.03;;;;;;;;;;4993147;28;20255;-85
2021/04/15 10:45:43;;;;;;;5.80;4.57;;;;;;;;;;5130610;27;20295;-86
2021/04/15 10:48:26;;;;;;;5.97;4.68;;;;;;;;;;5097508;28;20188;-86
2021/04/15 10:50:56;;;;;;;5.55;4.80;;;;;;;;;;5096188;28;20185;-86
2021/04/15 10:53:47;;;;;;;4.93;4.43;;;;;;;;;;5087156;28;20200;-87
2021/04/15 10:56:45;;;;;;;4.68;3.83;;;;;;;;;;5073045;28;20186;-86
2021/04/15 10:59:41;;;;;;;6.93;3.47;;;;;;;;;;5083996;28;20220;-87
2021/04/15 11:02:38;;;;;;;4.82;3.45;;;;;;;;;;5069741;28;20216;-87
2021/04/15 11:05:23;;;;;;;4.68;3.42;;;;;;;;;;5089519;28;20208;-86
2021/04/15 11:07:52;;;;;;;3.78;2.83;;;;;;;;;;5089744;28;20535;-87
2021/04/15 11:10:28;;;;;;;3.40;3.10;;;;;;;;;;5089803;28;20197;-86
2021/04/15 11:13:20;;;;;;;2.95;2.75;;;;;;;;;;5089837;28;20208;-87
2021/04/15 11:15:52;;;;;;;4.70;4.13;;;;;;;;;;5089106;28;20326;-87
2021/04/15 11:18:28;;;;;;;4.85;3.17;;;;;;;;;;5090011;28;20180;-87
2021/04/15 11:21:15;;;;;;;4.75;4.15;;;;;;;;;;5089463;28;20188;-86
2021/04/15 11:23:43;;;;;;;4.30;3.00;;;;;;;;;;5089365;28;20216;-87
2021/04/15 11:26:19;;;;;;;4.13;3.58;;;;;;;;;;5088832;28;20196;-87
2021/04/15 11:28:48;;;;;;;3.65;3.22;;;;;;;;;;5089640;28;20200;-86
2021/04/15 11:31:32;;;;;;;5.25;2.90;;;;;;;;;;5089385;28;20239;-87
2021/04/15 11:34:22;;;;;;;2.40;2.20;;;;;;;;;;5090834;28;20177;-86
2021/04/15 11:37:18;;;;;;;2.67;2.47;;;;;;;;;;5089788;28;20224;-87
2021/04/15 11:39:46;;;;;;;4.38;2.85;;;;;;;;;;5089874;28;20189;-86
2021/04/15 11:42:15;;;;;;;3.10;2.80;;;;;;;;;;5088644;28;20225;-86
2021/04/15 11:44:47;;;;;;;2.70;2.50;;;;;;;;;;5088531;28;20237;-86
2021/04/15 11:47:23;;;;;;;5.88;3.17;;;;;;;;;;5088712;28;20246;-86
2021/04/15 11:49:52;;;;;;;3.80;2.45;;;;;;;;;;5088580;28;20223;-87
2021/04/15 11:52:29;;;;;;;3.83;2.90;;;;;;;;;;5088939;28;20667;-85
2021/04/15 11:55:23;;;;;;;2.97;2.67;;;;;;;;;;5084184;28;20250;-89
2021/04/15 11:57:57;;;;;;;2.83;2.10;;;;;;;;;;5075195;28;20189;-86
2021/04/15 12:00:27;;;;;;;2.55;1.70;;;;;;;;;;5075570;28;20185;-85
2021/04/15 12:03:14;;;;;;;2.25;1.65;;;;;;;;;;5075266;28;20225;-86
2021/04/15 12:05:45;;;;;;;2.05;1.88;;;;;;;;;;5074921;28;20185;-86
2021/04/15 12:08:19;;;;;;;2.10;1.40;;;;;;;;;;5075071;28;20199;-86
2021/04/15 12:10:51;;;;;;;1.30;1.20;;;;;;;;;;5072490;28;20200;-87
2021/04/15 12:13:21;;;;;;;1.20;1.08;;;;;;;;;;5065776;28;20678;-87
2021/04/15 12:15:55;;;;;;;1.33;1.23;;;;;;;;;;5066137;28;20539;-87
2021/04/15 12:18:30;;;;;;;1.67;1.58;;;;;;;;;;5064606;28;20197;-86
2021/04/15 12:21:05;;;;;;;2.15;1.08;;;;;;;;;;5065549;28;20196;-87
2021/04/15 12:23:38;;;;;;;1.60;1.10;;;;;;;;;;5065991;28;20181;-86
2021/04/15 12:26:10;;;;;;;1.10;1.10;;;;;;;;;;5065592;28;20201;-87
2021/04/15 12:28:43;;;;;;;1.30;1.20;;;;;;;;;;5066137;28;20181;-87
2021/04/15 12:31:19;;;;;;;2.03;1.83;;;;;;;;;;5064416;28;20217;-86
2021/04/15 12:34:02;;;;;;;1.55;1.45;;;;;;;;;;5064589;28;20617;-87
2021/04/15 12:36:33;;;;;;;1.70;1.60;;;;;;;;;;5066302;28;20201;-87
2021/04/15 12:39:07;;;;;;;1.63;1.35;;;;;;;;;;5066099;28;20181;-87
2021/04/15 12:41:34;;;;;;;2.80;1.50;;;;;;;;;;5065490;28;20224;-86
2021/04/15 12:44:09;;;;;;;1.95;1.20;;;;;;;;;;5070563;28;20598;-86
2021/04/15 12:46:36;;;;;;;2.17;1.48;;;;;;;;;;5076934;28;20218;-87
2021/04/15 12:49:06;;;;;;;1.85;1.75;;;;;;;;;;5077553;28;20185;-86
2021/04/15 12:51:37;;;;;;;2.80;1.10;;;;;;;;;;5077560;28;20731;-86
2021/04/15 12:54:07;;;;;;;2.00;1.42;;;;;;;;;;5077634;28;20185;-87
2021/04/15 12:56:38;;;;;;;1.42;1.33;;;;;;;;;;5077090;28;20199;-86
2021/04/15 12:59:07;;;;;;;1.15;1.15;;;;;;;;;;5077280;28;20204;-88
2021/04/15 13:01:38;;;;;;;1.00;0.90;;;;;;;;;;5076712;28;20221;-85
2021/04/15 13:04:20;;;;;;;1.20;0.85;;;;;;;;;;5077184;28;20283;-86
2021/04/15 13:07:13;;;;;;;1.13;1.02;;;;;;;;;;5076257;28;20205;-86
2021/04/15 13:09:42;;;;;;;1.38;1.27;;;;;;;;;;5077763;28;20185;-86
2021/04/15 13:12:33;;;;;;;1.63;1.00;;;;;;;;;;5076574;28;20738;-86
2021/04/15 13:15:00;;;;;;;1.13;1.08;;;;;;;;;;5077482;28;20246;-86
2021/04/15 13:18:52;;;;;;;2.53;1.42;;;;;;;;;;5076001;28;20675;-86
2021/04/15 13:21:28;;;;;;;1.88;1.20;;;;;;;;;;4995572;28;20262;-87
2021/04/15 13:23:57;;;;;;;1.05;1.00;;;;;;;;;;4995388;28;20203;-86
2021/04/15 13:26:34;;;;;;;1.80;1.40;;;;;;;;;;5065219;28;20255;-86
2021/04/15 13:29:22;;;;;;;1.35;1.10;;;;;;;;;;5076572;28;20205;-87
2021/04/15 13:32:00;;;;;;;1.73;1.40;;;;;;;;;;5076691;28;20224;-87
2021/04/15 13:34:51;;;;;;;1.40;1.30;;;;;;;;;;5076648;28;20215;-87
2021/04/15 13:37:44;;;;;;;1.50;1.40;;;;;;;;;;5074957;28;20211;-87
2021/04/15 13:40:43;;;;;;;1.90;1.48;;;;;;;;;;5076296;28;20209;-87
2021/04/15 13:43:52;;;;;;;1.65;1.52;;;;;;;;;;5074665;28;20290;-87
2021/04/15 13:46:37;;;;;;;1.30;1.20;;;;;;;;;;5055974;28;20205;-87
2021/04/15 13:49:35;;;;;;;1.63;1.52;;;;;;;;;;5075665;28;20611;-87
2021/04/15 13:52:10;;;;;;;1.40;1.30;;;;;;;;;;5073985;28;20225;-87
2021/04/15 13:54:40;;;;;;;1.63;1.45;;;;;;;;;;5074239;28;20249;-87
2021/04/15 13:57:18;;;;;;;1.67;1.52;;;;;;;;;;5073416;28;20733;-87
2021/04/15 14:00:01;;;;;;;1.33;1.23;;;;;;;;;;5073616;28;20209;-87
2021/04/15 14:02:43;;;;;;;0.90;0.80;;;;;;;;;;5073368;28;20231;-86
2021/04/15 14:05:44;;;;;;;1.70;1.10;;;;;;;;;;5073457;28;20229;-87
2021/04/15 14:08:46;;;;;;;2.28;1.08;;;;;;;;;;5073645;28;20216;-87
2021/04/15 14:11:39;;;;;;;1.52;1.42;;;;;;;;;;5073801;28;20646;-87
2021/04/15 14:14:39;;;;;;;1.20;1.10;;;;;;;;;;5073295;28;20274;-86
2021/04/15 14:17:12;;;;;;;1.20;1.10;;;;;;;;;;5073545;28;20569;-87
2021/04/15 14:19:41;;;;;;;1.70;1.40;;;;;;;;;;5072993;28;20197;-86
2021/04/15 14:22:19;;;;;;;1.25;1.15;;;;;;;;;;5072940;28;20255;-86
2021/04/15 14:24:54;;;;;;;3.58;1.48;;;;;;;;;;5072995;28;20220;-87
2021/04/15 14:27:24;;;;;;;1.50;1.40;;;;;;;;;;5072832;28;20196;-87
2021/04/15 14:29:52;;;;;;;1.45;1.30;;;;;;;;;;5074379;28;20209;-87
2021/04/15 14:32:30;;;;;;;1.83;1.45;;;;;;;;;;5072750;28;20737;-87
2021/04/15 14:35:17;;;;;;;1.58;1.48;;;;;;;;;;5075884;28;20228;-87
2021/04/15 14:37:45;;;;;;;1.50;1.40;;;;;;;;;;5074169;28;20204;-87
2021/04/15 14:40:28;;;;;;;1.67;1.38;;;;;;;;;;5074418;28;20691;-87
2021/04/15 14:42:56;;;;;;;1.50;1.40;;;;;;;;;;5072986;28;20595;-86
2021/04/15 14:45:32;;;;;;;1.50;1.40;;;;;;;;;;5072306;28;20688;-87
2021/04/15 14:48:01;;;;;;;1.90;1.63;;;;;;;;;;5073211;28;20204;-87
2021/04/15 14:50:32;;;;;;;1.90;1.80;;;;;;;;;;5072642;28;20201;-87
2021/04/15 14:53:11;;;;;;;2.13;1.67;;;;;;;;;;5073004;28;20225;-87
2021/04/15 14:55:39;;;;;;;1.75;1.40;;;;;;;;;;5072723;28;20201;-86
2021/04/15 14:58:11;;;;;;;3.85;1.70;;;;;;;;;;5072423;28;20649;-87
2021/04/15 15:00:47;;;;;;;2.78;2.45;;;;;;;;;;5073126;28;20192;-86
2021/04/15 15:03:20;;;;;;;1.70;1.58;;;;;;;;;;5072898;28;20223;-87
2021/04/15 15:05:48;;;;;;;1.60;1.50;;;;;;;;;;5073178;28;20225;-86
2021/04/15 15:08:17;;;;;;;3.30;2.03;;;;;;;;;;5072613;28;20204;-87
2021/04/15 15:10:44;;;;;;;1.65;1.30;;;;;;;;;;5072592;28;20586;-87
2021/04/15 15:13:14;;;;;;;2.35;1.42;;;;;;;;;;5073884;28;20238;-87
2021/04/15 15:15:43;;;;;;;2.90;1.85;;;;;;;;;;5072795;28;20208;-87
2021/04/15 15:18:14;;;;;;;2.03;1.83;;;;;;;;;;5073623;28;20471;-86
2021/04/15 15:20:47;;;;;;;3.67;2.10;;;;;;;;;;5072806;28;20201;-87
2021/04/15 15:23:36;;;;;;;1.77;1.50;;;;;;;;;;5073458;28;20205;-87
2021/04/15 15:26:31;;;;;;;1.63;1.52;;;;;;;;;;5073127;28;20220;-87
2021/04/15 15:29:02;;;;;;;2.08;1.60;;;;;;;;;;5072622;28;20635;-86
2021/04/15 15:31:38;;;;;;;2.30;1.83;;;;;;;;;;5075617;28;20213;-87
2021/04/15 15:34:18;;;;;;;3.10;1.95;;;;;;;;;;5076862;28;20192;-87
2021/04/15 15:36:45;;;;;;;2.15;1.70;;;;;;;;;;5074716;28;20184;-86
2021/04/15 15:39:28;;;;;;;2.28;1.95;;;;;;;;;;5068042;28;20253;-86
2021/04/15 15:41:56;;;;;;;2.50;1.52;;;;;;;;;;5068927;28;20687;-86
2021/04/15 15:44:47;;;;;;;2.75;2.22;;;;;;;;;;5071423;28;20239;-86
2021/04/15 15:47:47;;;;;;;4.32;1.67;;;;;;;;;;5071108;28;20196;-86
2021/04/15 15:50:30;;;;;;;2.30;1.58;;;;;;;;;;5055747;28;20248;-87
2021/04/15 15:53:26;;;;;;;1.73;1.63;;;;;;;;;;5053638;28;20228;-86